createdAt,value
2022-11-27T00:00:18.126Z,53.35
2022-11-27T00:02:46.341Z,52.83
2022-11-27T00:05:14.779Z,49.70
2022-11-27T00:07:42.971Z,51.80
2022-11-27T00:10:11.813Z,54.35
2022-11-27T00:12:39.909Z,54.10
2022-11-27T00:15:10.520Z,48.65
2022-11-27T00:17:42.967Z,50.50
2022-11-27T00:20:11.587Z,51.75
2022-11-27T00:22:39.754Z,52.33
2022-11-27T00:25:08.764Z,49.95
2022-11-27T00:27:36.908Z,52.33
2022-11-27T00:30:05.577Z,52.00
2022-11-27T00:32:33.793Z,50.17
2022-11-27T00:35:03.357Z,48.25
2022-11-27T00:37:31.629Z,49.60
2022-11-27T00:39:59.827Z,48.97
2022-11-27T00:42:28.009Z,48.42
2022-11-27T00:44:56.107Z,47.42
2022-11-27T00:47:24.210Z,50.88
2022-11-27T00:49:52.833Z,46.17
2022-11-27T00:52:22.364Z,48.85
2022-11-27T00:54:50.807Z,46.45
2022-11-27T00:57:18.902Z,46.13
2022-11-27T00:59:47.092Z,49.28
2022-11-27T01:02:15.276Z,45.85
2022-11-27T01:04:44.526Z,45.70
2022-11-27T01:07:12.679Z,46.45
2022-11-27T01:09:42.400Z,44.60
2022-11-27T01:12:10.561Z,44.10
2022-11-27T01:14:39.062Z,45.08
2022-11-27T01:17:07.441Z,47.10
2022-11-27T01:19:35.537Z,44.38
2022-11-27T01:22:03.731Z,41.80
2022-11-27T01:24:31.800Z,41.08
2022-11-27T01:27:01.369Z,41.83
2022-11-27T01:29:29.550Z,40.75
2022-11-27T01:31:57.792Z,44.45
2022-11-27T01:34:25.917Z,40.63
2022-11-27T01:36:54.069Z,38.95
2022-11-27T01:39:24.142Z,39.90
2022-11-27T01:41:52.301Z,40.42
2022-11-27T01:44:49.369Z,39.70
2022-11-27T01:47:19.881Z,38.58
2022-11-27T01:49:50.406Z,38.05
2022-11-27T01:52:22.218Z,37.42
2022-11-27T01:54:52.137Z,36.30
2022-11-27T01:57:21.932Z,34.67
2022-11-27T01:59:51.649Z,37.65
2022-11-27T02:02:19.909Z,35.38
2022-11-27T02:04:48.010Z,36.53
2022-11-27T02:07:16.198Z,38.30
2022-11-27T02:09:44.302Z,36.08
2022-11-27T02:12:16.167Z,36.78
2022-11-27T02:14:48.731Z,34.65
2022-11-27T02:17:20.130Z,35.65
2022-11-27T02:19:57.244Z,33.00
2022-11-27T02:22:42.532Z,33.05
2022-11-27T02:25:14.463Z,33.65
2022-11-27T02:27:57.620Z,33.95
2022-11-27T02:30:27.489Z,32.47
2022-11-27T02:32:57.514Z,32.47
2022-11-27T02:35:29.312Z,31.48
2022-11-27T02:37:59.080Z,32.85
2022-11-27T02:40:31.263Z,32.95
2022-11-27T02:43:01.026Z,32.25
2022-11-27T02:45:32.881Z,29.10
2022-11-27T02:48:01.258Z,32.13
2022-11-27T02:50:29.654Z,30.02
2022-11-27T02:53:00.352Z,29.98
2022-11-27T02:55:29.568Z,27.90
2022-11-27T02:57:58.264Z,28.65
2022-11-27T03:00:26.572Z,28.27
2022-11-27T03:02:57.728Z,28.40
2022-11-27T03:05:27.428Z,28.15
2022-11-27T03:07:57.540Z,28.83
2022-11-27T03:10:28.340Z,27.90
2022-11-27T03:12:56.780Z,27.55
2022-11-27T03:15:24.994Z,26.60
2022-11-27T03:17:56.780Z,27.67
2022-11-27T03:20:27.164Z,28.25
2022-11-27T03:22:55.647Z,24.85
2022-11-27T03:25:23.917Z,25.52
2022-11-27T03:27:54.313Z,25.15
2022-11-27T03:30:22.823Z,25.67
2022-11-27T03:32:51.046Z,23.90
2022-11-27T03:35:22.672Z,24.10
2022-11-27T03:37:50.970Z,26.98
2022-11-27T03:40:19.530Z,23.60
2022-11-27T03:42:53.828Z,24.70
2022-11-27T03:45:28.025Z,21.92
2022-11-27T03:48:01.243Z,23.75
2022-11-27T03:50:35.237Z,23.27
2022-11-27T03:53:08.820Z,20.92
2022-11-27T03:55:40.125Z,23.10
2022-11-27T03:58:09.776Z,23.92
2022-11-27T04:00:39.233Z,21.90
2022-11-27T04:03:10.375Z,22.33
2022-11-27T04:05:40.248Z,22.27
2022-11-27T04:08:08.746Z,21.08
2022-11-27T04:10:36.961Z,20.42
2022-11-27T04:13:05.364Z,22.90
2022-11-27T04:15:33.608Z,20.77
2022-11-27T04:18:01.876Z,20.20
2022-11-27T04:20:30.334Z,19.98
2022-11-27T04:23:00.177Z,19.70
2022-11-27T04:25:28.441Z,19.65
2022-11-27T04:27:56.641Z,20.00
2022-11-27T04:30:25.043Z,20.35
2022-11-27T04:32:53.356Z,19.55
2022-11-27T04:35:21.593Z,18.80
2022-11-27T04:37:50.073Z,20.10
2022-11-27T04:40:20.422Z,19.08
2022-11-27T04:42:48.741Z,18.67
2022-11-27T04:45:17.060Z,18.42
2022-11-27T04:47:45.415Z,17.77
2022-11-27T04:50:13.623Z,17.88
2022-11-27T04:52:41.924Z,18.98
2022-11-27T04:55:11.000Z,18.15
2022-11-27T04:57:40.677Z,17.00
2022-11-27T05:00:10.439Z,19.48
2022-11-27T05:02:39.630Z,16.42
2022-11-27T05:05:09.804Z,18.67
2022-11-27T05:07:38.585Z,18.42
2022-11-27T05:10:07.896Z,17.25
2022-11-27T05:12:36.245Z,16.67
2022-11-27T05:15:06.792Z,16.10
2022-11-27T05:17:35.032Z,16.63
2022-11-27T05:20:03.676Z,15.45
2022-11-27T05:22:32.357Z,16.77
2022-11-27T05:25:00.547Z,15.50
2022-11-27T05:27:28.775Z,17.38
2022-11-27T05:29:56.977Z,14.57
2022-11-27T05:32:26.823Z,14.43
2022-11-27T05:34:55.212Z,15.65
2022-11-27T05:37:23.510Z,14.90
2022-11-27T05:39:51.746Z,14.05
2022-11-27T05:42:20.089Z,15.63
2022-11-27T05:44:48.335Z,14.95
2022-11-27T05:47:16.595Z,15.32
2022-11-27T05:49:46.465Z,16.42
2022-11-27T05:52:14.772Z,13.10
2022-11-27T05:54:43.127Z,14.20
2022-11-27T05:57:11.469Z,15.25
2022-11-27T05:59:39.583Z,13.25
2022-11-27T06:02:07.850Z,12.10
2022-11-27T06:04:36.004Z,12.05
2022-11-27T06:07:05.761Z,12.77
2022-11-27T06:09:33.982Z,12.15
2022-11-27T06:12:02.110Z,12.40
2022-11-27T06:14:31.809Z,12.23
2022-11-27T06:16:59.943Z,13.60
2022-11-27T06:19:28.340Z,11.30
2022-11-27T06:21:56.693Z,11.60
2022-11-27T06:24:26.432Z,11.95
2022-11-27T06:26:54.657Z,11.50
2022-11-27T06:29:22.762Z,11.05
2022-11-27T06:31:51.137Z,11.68
2022-11-27T06:34:19.348Z,11.38
2022-11-27T06:36:49.513Z,10.18
2022-11-27T06:39:17.861Z,11.13
2022-11-27T06:41:47.329Z,10.40
2022-11-27T06:44:15.527Z,10.55
2022-11-27T06:46:43.665Z,11.75
2022-11-27T06:49:13.566Z,11.90
2022-11-27T06:51:41.766Z,10.82
2022-11-27T06:54:09.953Z,11.18
2022-11-27T06:56:38.182Z,9.27
2022-11-27T06:59:07.677Z,10.73
2022-11-27T07:01:36.090Z,10.55
2022-11-27T07:04:04.277Z,10.85
2022-11-27T07:06:32.456Z,9.57
2022-11-27T07:09:00.532Z,10.75
2022-11-27T07:11:29.805Z,10.20
2022-11-27T07:13:59.993Z,10.65
2022-11-27T07:16:31.403Z,9.93
2022-11-27T07:19:02.441Z,8.90
2022-11-27T07:21:30.604Z,10.85
2022-11-27T07:23:58.722Z,9.85
2022-11-27T07:26:27.608Z,9.60
2022-11-27T07:28:56.121Z,9.68
2022-11-27T07:31:26.600Z,9.15
2022-11-27T07:33:56.154Z,11.32
2022-11-27T07:36:25.049Z,11.40
2022-11-27T07:38:53.210Z,9.02
2022-11-27T07:41:21.309Z,9.27
2022-11-27T07:43:49.469Z,9.27
2022-11-27T07:46:18.548Z,9.30
2022-11-27T07:48:46.900Z,8.18
2022-11-27T07:51:17.276Z,8.55
2022-11-27T07:53:45.565Z,8.88
2022-11-27T07:56:15.110Z,9.93
2022-11-27T07:58:43.296Z,8.45
2022-11-27T08:01:13.031Z,8.88
2022-11-27T08:03:44.227Z,8.18
2022-11-27T08:06:18.296Z,8.50
2022-11-27T08:08:46.592Z,8.70
2022-11-27T08:11:22.078Z,8.25
2022-11-27T08:13:50.507Z,8.32
2022-11-27T08:16:19.104Z,8.30
2022-11-27T08:18:47.456Z,8.27
2022-11-27T08:21:17.165Z,9.05
2022-11-27T08:23:45.476Z,10.48
2022-11-27T08:26:13.796Z,8.82
2022-11-27T08:28:42.101Z,8.73
2022-11-27T08:31:11.619Z,9.85
2022-11-27T08:33:39.933Z,8.40
2022-11-27T08:36:12.563Z,9.98
2022-11-27T08:38:44.852Z,8.43
2022-11-27T08:41:13.105Z,8.52
2022-11-27T08:43:41.433Z,10.85
2022-11-27T08:46:09.902Z,12.65
2022-11-27T08:48:38.137Z,18.70
2022-11-27T08:51:07.653Z,26.60
2022-11-27T08:53:36.225Z,31.20
2022-11-27T08:56:08.907Z,30.42
2022-11-27T08:58:37.225Z,38.13
2022-11-27T09:01:10.190Z,39.70
2022-11-27T09:03:38.587Z,44.22
2022-11-27T09:06:10.835Z,43.28
2022-11-27T09:08:39.472Z,47.40
2022-11-27T09:11:09.394Z,47.55
2022-11-27T09:13:37.864Z,50.13
2022-11-27T09:16:06.524Z,51.55
2022-11-27T09:18:34.787Z,54.15
2022-11-27T09:21:03.729Z,49.92
2022-11-27T09:23:32.233Z,46.92
2022-11-27T09:26:00.460Z,59.08
2022-11-27T09:28:31.779Z,66.05
2022-11-27T09:31:01.108Z,73.88
2022-11-27T09:33:30.083Z,73.75
2022-11-27T09:35:58.460Z,61.58
2022-11-27T09:38:26.685Z,63.38
2022-11-27T09:41:02.836Z,69.80
2022-11-27T09:43:35.812Z,68.68
2022-11-27T09:46:08.483Z,73.53
2022-11-27T09:48:39.399Z,70.13
2022-11-27T09:51:10.575Z,72.05
2022-11-27T09:53:43.857Z,68.13
2022-11-27T09:56:13.580Z,72.60
2022-11-27T09:58:43.962Z,72.20
2022-11-27T10:01:13.437Z,71.90
2022-11-27T10:03:42.392Z,66.10
2022-11-27T10:06:21.685Z,74.45
2022-11-27T10:08:53.696Z,81.20
2022-11-27T10:11:24.441Z,77.35
2022-11-27T10:14:03.915Z,74.22
2022-11-27T10:16:35.129Z,79.75
2022-11-27T10:19:07.284Z,80.90
2022-11-27T10:21:38.884Z,77.15
2022-11-27T10:24:09.506Z,69.25
2022-11-27T10:26:39.400Z,72.38
2022-11-27T10:29:14.095Z,72.53
2022-11-27T10:31:44.583Z,81.47
2022-11-27T10:34:22.254Z,84.57
2022-11-27T10:36:50.617Z,86.38
2022-11-27T10:39:32.781Z,89.78
2022-11-27T10:42:03.854Z,88.47
2022-11-27T10:44:34.697Z,90.57
2022-11-27T10:47:03.995Z,87.25
2022-11-27T10:49:32.361Z,87.03
2022-11-27T10:52:00.983Z,85.97
2022-11-27T10:54:29.949Z,85.38
2022-11-27T10:57:06.601Z,81.85
2022-11-27T10:59:37.089Z,82.63
2022-11-27T11:02:08.023Z,80.03
2022-11-27T11:04:38.401Z,81.20
2022-11-27T11:07:25.894Z,81.70
2022-11-27T11:09:54.261Z,79.15
2022-11-27T11:12:23.116Z,76.57
2022-11-27T11:14:53.430Z,76.20
2022-11-27T11:17:25.763Z,80.53
2022-11-27T11:19:54.633Z,76.18
2022-11-27T11:22:23.027Z,77.03
2022-11-27T11:24:53.290Z,77.38
2022-11-27T11:27:22.909Z,74.10
2022-11-27T11:29:53.096Z,71.85
2022-11-27T11:32:24.740Z,68.88
2022-11-27T11:35:00.371Z,70.38
2022-11-27T11:37:30.207Z,70.28
2022-11-27T11:39:59.765Z,71.78
2022-11-27T11:42:28.784Z,68.72
2022-11-27T11:45:04.047Z,68.70
2022-11-27T11:47:32.658Z,69.82
2022-11-27T11:50:01.040Z,66.40
2022-11-27T11:52:39.397Z,65.60
2022-11-27T11:55:11.820Z,65.47
2022-11-27T11:57:53.530Z,64.40
2022-11-27T12:00:29.839Z,65.22
2022-11-27T12:03:11.698Z,62.17
2022-11-27T12:05:41.877Z,62.88
2022-11-27T12:08:33.477Z,60.58
2022-11-27T12:11:07.174Z,61.17
2022-11-27T12:13:46.198Z,60.35
2022-11-27T12:16:18.449Z,60.83
2022-11-27T12:18:54.582Z,59.58
2022-11-27T12:21:24.549Z,57.78
2022-11-27T12:23:58.860Z,59.65
2022-11-27T12:26:31.881Z,61.15
2022-11-27T12:29:18.439Z,62.72
2022-11-27T12:31:59.900Z,60.88
2022-11-27T12:34:33.009Z,63.67
2022-11-27T12:37:13.956Z,63.53
2022-11-27T12:39:50.952Z,59.83
2022-11-27T12:42:22.155Z,64.45
2022-11-27T12:44:54.484Z,64.25
2022-11-27T12:47:25.763Z,70.22
2022-11-27T12:49:56.560Z,63.22
2022-11-27T12:52:25.772Z,65.45
2022-11-27T12:54:56.021Z,65.25
2022-11-27T12:57:27.143Z,62.20
2022-11-27T12:59:57.074Z,51.92
2022-11-27T13:02:35.357Z,45.67
2022-11-27T13:05:05.102Z,45.47
2022-11-27T13:07:40.266Z,44.95
2022-11-27T13:10:14.049Z,44.25
2022-11-27T13:12:45.277Z,44.45
2022-11-27T13:15:20.751Z,45.10
2022-11-27T13:17:54.206Z,53.97
2022-11-27T13:20:25.046Z,62.95
2022-11-27T13:22:53.382Z,65.28
2022-11-27T13:25:21.907Z,61.47
2022-11-27T13:27:50.885Z,62.42
2022-11-27T13:30:21.630Z,66.43
2022-11-27T13:32:52.684Z,58.25
2022-11-27T13:35:22.176Z,61.88
2022-11-27T13:37:51.142Z,68.40
2022-11-27T13:40:20.488Z,58.78
2022-11-27T13:42:50.689Z,60.97
2022-11-27T13:45:21.474Z,64.75
2022-11-27T13:47:51.207Z,60.42
2022-11-27T13:50:20.476Z,60.10
2022-11-27T13:52:54.725Z,56.40
2022-11-27T13:55:27.602Z,59.30
2022-11-27T13:57:55.999Z,57.95
2022-11-27T14:00:33.099Z,52.22
2022-11-27T14:03:02.966Z,56.20
2022-11-27T14:05:39.136Z,54.47
2022-11-27T14:08:17.873Z,53.97
2022-11-27T14:10:50.953Z,52.58
2022-11-27T14:13:21.465Z,54.65
2022-11-27T14:16:02.053Z,49.83
2022-11-27T14:18:32.150Z,50.38
2022-11-27T14:21:02.271Z,52.20
2022-11-27T14:23:31.414Z,48.75
2022-11-27T14:26:10.683Z,49.90
2022-11-27T14:28:44.331Z,47.05
2022-11-27T14:31:23.273Z,48.90
2022-11-27T14:34:14.407Z,46.78
2022-11-27T14:36:41.636Z,46.63
2022-11-27T14:39:22.250Z,47.33
2022-11-27T14:41:58.282Z,43.97
2022-11-27T14:44:26.523Z,45.75
2022-11-27T14:46:54.833Z,42.47
2022-11-27T14:49:26.252Z,44.83
2022-11-27T14:51:54.501Z,42.97
2022-11-27T14:54:25.588Z,38.53
2022-11-27T14:56:53.740Z,42.55
2022-11-27T14:59:22.509Z,42.63
2022-11-27T15:02:00.019Z,39.97
2022-11-27T15:04:30.796Z,42.28
2022-11-27T15:06:58.977Z,38.35
2022-11-27T15:09:32.322Z,39.00
2022-11-27T15:12:02.093Z,39.17
2022-11-27T15:14:30.224Z,40.70
2022-11-27T15:16:58.330Z,36.67
2022-11-27T15:19:29.854Z,37.15
2022-11-27T15:21:58.277Z,36.70
2022-11-27T15:24:32.067Z,38.75
2022-11-27T15:27:19.303Z,33.33
2022-11-27T15:30:01.163Z,35.50
2022-11-27T15:32:35.984Z,35.22
2022-11-27T15:35:14.228Z,34.17
2022-11-27T15:37:42.348Z,33.30
2022-11-27T15:40:29.152Z,34.92
2022-11-27T15:42:57.334Z,32.88
2022-11-27T15:45:28.125Z,33.25
2022-11-27T15:47:59.341Z,32.38
2022-11-27T15:50:28.977Z,33.15
2022-11-27T15:52:57.140Z,31.02
2022-11-27T15:55:25.374Z,31.80
2022-11-27T15:57:53.552Z,31.95
2022-11-27T16:00:23.216Z,31.73
2022-11-27T16:02:52.508Z,33.13
2022-11-27T16:05:20.734Z,31.27
2022-11-27T16:07:55.029Z,31.52
2022-11-27T16:10:23.655Z,29.33
2022-11-27T16:12:55.161Z,29.40
2022-11-27T16:15:25.060Z,29.67
2022-11-27T16:17:55.752Z,29.00
2022-11-27T16:20:23.882Z,29.45
2022-11-27T16:22:53.480Z,28.13
2022-11-27T16:25:21.571Z,36.67
2022-11-27T16:27:49.805Z,36.45
2022-11-27T16:30:19.958Z,38.88
2022-11-27T16:32:49.001Z,34.95
2022-11-27T16:35:17.152Z,39.97
2022-11-27T16:37:46.355Z,36.67
2022-11-27T16:40:17.625Z,38.45
2022-11-27T16:42:45.858Z,35.42
2022-11-27T16:45:14.037Z,33.45
2022-11-27T16:47:42.364Z,35.78
2022-11-27T16:50:11.006Z,32.50
2022-11-27T16:52:39.144Z,31.95
2022-11-27T16:55:08.101Z,32.35
2022-11-27T16:57:37.915Z,36.55
2022-11-27T17:00:09.376Z,37.88
2022-11-27T17:02:37.761Z,47.38
2022-11-27T17:05:06.346Z,42.30
2022-11-27T17:07:34.640Z,41.95
2022-11-27T17:10:02.812Z,43.92
2022-11-27T17:12:30.996Z,48.17
2022-11-27T17:15:00.851Z,44.13
2022-11-27T17:17:29.870Z,42.10
2022-11-27T17:20:00.588Z,38.70
2022-11-27T17:22:30.575Z,40.75
2022-11-27T17:24:59.021Z,39.88
2022-11-27T17:27:27.348Z,38.35
2022-11-27T17:29:55.431Z,39.03
2022-11-27T17:32:25.437Z,40.53
2022-11-27T17:34:55.120Z,36.35
2022-11-27T17:37:23.807Z,37.40
2022-11-27T17:39:53.004Z,40.38
2022-11-27T17:42:22.801Z,40.97
2022-11-27T17:44:51.638Z,41.25
2022-11-27T17:47:19.732Z,42.78
2022-11-27T17:49:49.505Z,46.92
2022-11-27T17:52:17.720Z,53.25
2022-11-27T17:54:45.999Z,50.58
2022-11-27T17:57:14.130Z,52.35
2022-11-27T17:59:42.406Z,52.42
2022-11-27T18:02:11.781Z,53.15
2022-11-27T18:04:40.465Z,50.65
2022-11-27T18:07:10.338Z,51.22
2022-11-27T18:09:39.133Z,49.55
2022-11-27T18:12:08.662Z,46.67
2022-11-27T18:14:37.573Z,48.30
2022-11-27T18:17:07.164Z,48.58
2022-11-27T18:19:35.328Z,46.47
2022-11-27T18:22:03.502Z,54.85
2022-11-27T18:24:33.438Z,60.42
2022-11-27T18:27:09.504Z,74.32
2022-11-27T18:29:38.609Z,77.15
2022-11-27T18:32:07.259Z,77.03
2022-11-27T18:34:35.744Z,78.72
2022-11-27T18:37:04.077Z,72.97
2022-11-27T18:39:33.784Z,74.05
2022-11-27T18:42:03.433Z,77.85
2022-11-27T18:44:31.903Z,70.97
2022-11-27T18:47:00.767Z,74.88
2022-11-27T18:49:29.839Z,69.70
2022-11-27T18:51:58.509Z,69.68
2022-11-27T18:54:26.970Z,80.03
2022-11-27T18:56:56.676Z,89.47
2022-11-27T18:59:25.018Z,73.00
2022-11-27T19:01:54.587Z,77.00
2022-11-27T19:04:24.057Z,72.88
2022-11-27T19:06:52.759Z,73.15
2022-11-27T19:09:21.166Z,76.32
2022-11-27T19:11:49.762Z,77.20
2022-11-27T19:14:19.666Z,81.25
2022-11-27T19:16:48.612Z,71.07
2022-11-27T19:20:04.176Z,75.88
2022-11-27T19:22:08.348Z,87.22
2022-11-27T19:24:38.439Z,84.60
2022-11-27T19:27:07.564Z,84.88
2022-11-27T19:29:38.113Z,92.88
2022-11-27T19:32:06.730Z,85.88
2022-11-27T19:34:35.514Z,92.00
2022-11-27T19:37:03.870Z,90.13
2022-11-27T19:39:32.097Z,93.10
2022-11-27T19:42:00.406Z,89.18
2022-11-27T19:44:30.448Z,93.05
2022-11-27T19:47:00.958Z,86.38
2022-11-27T19:49:29.537Z,85.43
2022-11-27T19:51:58.699Z,86.18
2022-11-27T19:54:27.157Z,88.65
2022-11-27T19:56:55.866Z,80.95
2022-11-27T19:59:26.236Z,81.35
2022-11-27T20:01:56.162Z,88.43
2022-11-27T20:04:30.842Z,77.60
2022-11-27T20:06:59.200Z,78.95
2022-11-27T20:09:27.381Z,84.30
2022-11-27T20:11:55.765Z,72.55
2022-11-27T20:14:24.445Z,72.65
2022-11-27T20:16:52.874Z,68.25
2022-11-27T20:19:21.652Z,70.03
2022-11-27T20:21:52.709Z,70.88
2022-11-27T20:24:21.057Z,70.00
2022-11-27T20:26:50.542Z,66.18
2022-11-27T20:29:19.743Z,64.50
2022-11-27T20:31:49.113Z,66.55
2022-11-27T20:34:19.326Z,58.22
2022-11-27T20:36:48.529Z,60.47
2022-11-27T20:39:21.717Z,60.05
2022-11-27T20:41:53.517Z,61.70
2022-11-27T20:44:22.449Z,59.33
2022-11-27T20:46:50.908Z,53.80
2022-11-27T20:49:19.698Z,55.03
2022-11-27T20:51:49.137Z,56.08
2022-11-27T20:54:21.959Z,53.55
2022-11-27T20:56:51.433Z,51.63
2022-11-27T20:59:20.172Z,48.22
2022-11-27T21:01:49.094Z,45.83
2022-11-27T21:04:22.480Z,47.30
2022-11-27T21:06:50.792Z,45.60
2022-11-27T21:09:21.908Z,43.42
2022-11-27T21:11:50.304Z,46.95
2022-11-27T21:14:18.665Z,44.58
2022-11-27T21:16:48.882Z,45.53
2022-11-27T21:19:18.736Z,45.88
2022-11-27T21:21:47.112Z,42.53
2022-11-27T21:24:15.773Z,42.97
2022-11-27T21:26:45.755Z,43.55
2022-11-27T21:29:16.241Z,40.95
2022-11-27T21:31:47.227Z,41.17
2022-11-27T21:34:16.325Z,40.22
2022-11-27T21:36:45.628Z,42.30
2022-11-27T21:39:20.327Z,40.22
2022-11-27T21:41:51.117Z,39.88
2022-11-27T21:44:21.016Z,39.95
2022-11-27T21:46:49.395Z,39.05
2022-11-27T21:49:19.108Z,37.22
2022-11-27T21:51:51.267Z,37.00
2022-11-27T21:54:20.066Z,38.42
2022-11-27T21:56:48.290Z,36.08
2022-11-27T21:59:18.237Z,36.08
2022-11-27T22:01:47.011Z,35.63
2022-11-27T22:04:15.540Z,36.65
2022-11-27T22:06:45.204Z,33.45
2022-11-27T22:09:15.768Z,34.55
2022-11-27T22:11:44.953Z,35.22
2022-11-27T22:14:13.690Z,32.80
2022-11-27T22:16:45.675Z,33.05
2022-11-27T22:19:15.515Z,31.63
2022-11-27T22:21:44.129Z,33.13
2022-11-27T22:24:18.382Z,31.63
2022-11-27T22:26:51.053Z,31.52
2022-11-27T22:29:19.462Z,32.50
2022-11-27T22:31:49.470Z,31.58
2022-11-27T22:34:18.380Z,30.48
2022-11-27T22:36:47.142Z,30.98
2022-11-27T22:39:15.477Z,31.63
2022-11-27T22:41:44.916Z,30.05
2022-11-27T22:44:16.465Z,30.67
2022-11-27T22:46:44.849Z,28.48
2022-11-27T22:49:17.026Z,28.83
2022-11-27T22:51:45.349Z,28.45
2022-11-27T22:54:17.153Z,32.13
2022-11-27T22:56:46.867Z,27.35
2022-11-27T22:59:32.677Z,29.55
2022-11-27T23:02:03.068Z,27.90
2022-11-27T23:04:32.980Z,29.65
2022-11-27T23:07:01.391Z,26.27
2022-11-27T23:09:30.011Z,27.65
2022-11-27T23:11:58.750Z,26.40
2022-11-27T23:14:27.006Z,34.22
2022-11-27T23:16:55.404Z,25.10
2022-11-27T23:19:23.767Z,26.38
2022-11-27T23:21:53.524Z,24.58
2022-11-27T23:24:21.903Z,26.13
2022-11-27T23:26:50.001Z,24.58
2022-11-27T23:29:18.223Z,24.38
2022-11-27T23:31:46.340Z,23.92
2022-11-27T23:34:16.046Z,24.83
2022-11-27T23:36:44.335Z,24.02
2022-11-27T23:39:14.137Z,23.00
2022-11-27T23:41:42.328Z,25.45
2022-11-27T23:44:10.422Z,27.00
2022-11-27T23:46:38.584Z,26.33
2022-11-27T23:49:06.745Z,23.15
2022-11-27T23:51:34.892Z,23.25
2022-11-27T23:54:02.992Z,23.55
2022-11-27T23:56:32.807Z,24.33
2022-11-27T23:59:00.983Z,23.20
